Liguria — IRKJ — position and weather

sailwx.info

Track history (hours):
 
Tides and Currents Weather Stations Pressure Air Temp Water Temp Dewpoint Dewpoint Depression Visibility Wind Speed Wind Dir Waves Ship Positions

Liguria

Last reported at 2014-Jul-30 13:25 UTC. Time now 2014-Jul-30 19:12 UTC.
Position N 44°18' E 008°29'.

Length 30 m.

Type: Tug. MMSI: 247228500.

Date/timePositionNaut miles runAvg speedWind from/ knotsBaromVisibWave heightAir tempDewpointWater temp
2014-Jul-30 13:25N 44°18' E 008°29'0 0.0
2014-Jul-30 11:28N 44°18' E 008°29'0 0.0
2014-Jul-30 10:16N 44°18' E 008°29'0 0.0
2014-Jul-30 08:04N 44°18' E 008°29'0 0.0
2014-Jul-30 07:16N 44°18' E 008°29'0 0.0
2014-Jul-29 11:25N 44°18' E 008°29'0 0.0
2014-Jul-29 10:28N 44°18' E 008°29'0 0.0
2014-Jul-29 08:16N 44°18' E 008°29'0 0.0
2014-Jul-29 07:16N 44°18' E 008°29'0 0.0
2014-Jul-29 06:28N 44°18' E 008°29'1 0.5
2014-Jul-29 05:25N 44°19' E 008°30'0 0.3
2014-Jul-29 04:30N 44°19' E 008°30'1 0.0
2014-Jul-28 03:32N 44°18' E 008°29'0 0.0
2014-Jul-28 02:32N 44°18' E 008°29'0 0.0
2014-Jul-28 01:32N 44°18' E 008°29'0 0.0
2014-Jul-28 00:29N 44°18' E 008°29'0 0.0
2014-Jul-27 23:26N 44°18' E 008°29'0 0.0
2014-Jul-27 22:29N 44°18' E 008°29'0 0.0
2014-Jul-27 20:32N 44°18' E 008°29'0 0.0
2014-Jul-27 19:32N 44°18' E 008°29'0 0.0
2014-Jul-27 18:23N 44°18' E 008°29'0 0.0
2014-Jul-27 17:32N 44°18' E 008°29'0 0.0
2014-Jul-27 16:26N 44°18' E 008°29'0 0.0
2014-Jul-27 15:14N 44°18' E 008°29'0 0.0
2014-Jul-27 13:04N 44°18' E 008°29'0 0.0
2014-Jul-27 12:28N 44°18' E 008°29'0 0.0
2014-Jul-27 11:10N 44°18' E 008°29'0 0.1
2014-Jul-27 07:17N 44°19' E 008°30'1 0.9
2014-Jul-27 06:26N 44°19' E 008°30'1 0.4
2014-Jul-27 04:06N 44°18' E 008°29'1 0.1
2014-Jul-26 17:24N 44°19' E 008°30'3 0.4
2014-Jul-26 08:18N 44°16' E 008°28'3 4.1
2014-Jul-26 07:33N 44°19' E 008°30'1 0.2
2014-Jul-26 03:28N 44°18' E 008°29'0 0.0
2014-Jul-26 02:31N 44°18' E 008°29'0 0.0
2014-Jul-26 01:28N 44°18' E 008°29'0 0.0
2014-Jul-26 00:25N 44°18' E 008°29'0 0.0
2014-Jul-25 23:07N 44°18' E 008°29'0 0.0
2014-Jul-25 19:31N 44°18' E 008°29'0 0.0
2014-Jul-25 15:28N 44°18' E 008°29'0 0.0
2014-Jul-25 11:16N 44°18' E 008°29'0 0.5
2014-Jul-25 10:33N 44°19' E 008°30'0 0.0
2014-Jul-24 12:13N 44°18' E 008°29'1 0.9
2014-Jul-24 11:33N 44°19' E 008°30'0 0.3
2014-Jul-24 10:32N 44°19' E 008°30'4 3.7
2014-Jul-24 09:30N 44°16' E 008°27'0 0.0
2014-Jul-24 07:33N 44°16' E 008°27'0 0.1
2014-Jul-24 05:11N 44°16' E 008°27'4 5.3
2014-Jul-24 04:27N 44°19' E 008°30'1 0.1
2014-Jul-23 17:17N 44°18' E 008°29'0 0.0
2014-Jul-23 16:20N 44°18' E 008°29'0 0.0
2014-Jul-22 17:32N 44°18' E 008°29'0 0.0
2014-Jul-22 16:32N 44°18' E 008°29'0 0.0
2014-Jul-22 15:29N 44°18' E 008°29'0 0.0
2014-Jul-22 14:29N 44°18' E 008°29'0 0.0
2014-Jul-22 12:32N 44°18' E 008°29'0 0.0
2014-Jul-22 07:26N 44°18' E 008°29'0 0.0
2014-Jul-21 11:27N 44°18' E 008°29'  
Track history (hours):
 
Tides and Currents Weather Stations Pressure Air Temp Water Temp Dewpoint Dewpoint Depression Visibility Wind Speed Wind Dir Waves Ship Positions

Liguria

Last reported at 2014-Jul-30 13:25 UTC. Time now 2014-Jul-30 19:12 UTC.
Position N 44°18' E 008°29'.

Length 30 m.

Type: Tug. MMSI: 247228500.

Date/timePositionNaut miles runAvg speedWind from/ knotsBaromVisibWave heightAir tempDewpointWater temp
2014-Jul-30 13:25N 44°18' E 008°29'0 0.0
2014-Jul-30 11:28N 44°18' E 008°29'0 0.0
2014-Jul-30 10:16N 44°18' E 008°29'0 0.0
2014-Jul-30 08:04N 44°18' E 008°29'0 0.0
2014-Jul-30 07:16N 44°18' E 008°29'0 0.0
2014-Jul-29 11:25N 44°18' E 008°29'0 0.0
2014-Jul-29 10:28N 44°18' E 008°29'0 0.0
2014-Jul-29 08:16N 44°18' E 008°29'0 0.0
2014-Jul-29 07:16N 44°18' E 008°29'0 0.0
2014-Jul-29 06:28N 44°18' E 008°29'1 0.5
2014-Jul-29 05:25N 44°19' E 008°30'0 0.3
2014-Jul-29 04:30N 44°19' E 008°30'1 0.0
2014-Jul-28 03:32N 44°18' E 008°29'0 0.0
2014-Jul-28 02:32N 44°18' E 008°29'0 0.0
2014-Jul-28 01:32N 44°18' E 008°29'0 0.0
2014-Jul-28 00:29N 44°18' E 008°29'0 0.0
2014-Jul-27 23:26N 44°18' E 008°29'0 0.0
2014-Jul-27 22:29N 44°18' E 008°29'0 0.0
2014-Jul-27 20:32N 44°18' E 008°29'0 0.0
2014-Jul-27 19:32N 44°18' E 008°29'0 0.0
2014-Jul-27 18:23N 44°18' E 008°29'0 0.0
2014-Jul-27 17:32N 44°18' E 008°29'0 0.0
2014-Jul-27 16:26N 44°18' E 008°29'0 0.0
2014-Jul-27 15:14N 44°18' E 008°29'0 0.0
2014-Jul-27 13:04N 44°18' E 008°29'0 0.0
2014-Jul-27 12:28N 44°18' E 008°29'0 0.0
2014-Jul-27 11:10N 44°18' E 008°29'0 0.1
2014-Jul-27 07:17N 44°19' E 008°30'1 0.9
2014-Jul-27 06:26N 44°19' E 008°30'1 0.4
2014-Jul-27 04:06N 44°18' E 008°29'1 0.1
2014-Jul-26 17:24N 44°19' E 008°30'3 0.4
2014-Jul-26 08:18N 44°16' E 008°28'3 4.1
2014-Jul-26 07:33N 44°19' E 008°30'1 0.2
2014-Jul-26 03:28N 44°18' E 008°29'0 0.0
2014-Jul-26 02:31N 44°18' E 008°29'0 0.0
2014-Jul-26 01:28N 44°18' E 008°29'0 0.0
2014-Jul-26 00:25N 44°18' E 008°29'0 0.0
2014-Jul-25 23:07N 44°18' E 008°29'0 0.0
2014-Jul-25 19:31N 44°18' E 008°29'0 0.0
2014-Jul-25 15:28N 44°18' E 008°29'0 0.0
2014-Jul-25 11:16N 44°18' E 008°29'0 0.5
2014-Jul-25 10:33N 44°19' E 008°30'0 0.0
2014-Jul-24 12:13N 44°18' E 008°29'1 0.9
2014-Jul-24 11:33N 44°19' E 008°30'0 0.3
2014-Jul-24 10:32N 44°19' E 008°30'4 3.7
2014-Jul-24 09:30N 44°16' E 008°27'0 0.0
2014-Jul-24 07:33N 44°16' E 008°27'0 0.1
2014-Jul-24 05:11N 44°16' E 008°27'4 5.3
2014-Jul-24 04:27N 44°19' E 008°30'1 0.1
2014-Jul-23 17:17N 44°18' E 008°29'0 0.0
2014-Jul-23 16:20N 44°18' E 008°29'0 0.0
2014-Jul-22 17:32N 44°18' E 008°29'0 0.0
2014-Jul-22 16:32N 44°18' E 008°29'0 0.0
2014-Jul-22 15:29N 44°18' E 008°29'0 0.0
2014-Jul-22 14:29N 44°18' E 008°29'0 0.0
2014-Jul-22 12:32N 44°18' E 008°29'0 0.0
2014-Jul-22 07:26N 44°18' E 008°29'0 0.0
2014-Jul-21 11:27N 44°18' E 008°29'  

Dump ship's entire track history